createdAt,value
2018-11-12T00:01:08.019Z,5.90
2018-11-12T00:03:37.090Z,5.90
2018-11-12T00:06:05.843Z,5.80
2018-11-12T00:08:34.211Z,5.70
2018-11-12T00:11:03.317Z,5.70
2018-11-12T00:13:31.776Z,5.60
2018-11-12T00:16:00.248Z,5.60
2018-11-12T00:18:28.704Z,5.50
2018-11-12T00:20:57.080Z,5.50
2018-11-12T00:23:25.546Z,5.50
2018-11-12T00:25:59.082Z,5.40
2018-11-12T00:28:27.507Z,5.30
2018-11-12T00:30:55.924Z,5.30
2018-11-12T00:33:24.348Z,5.30
2018-11-12T00:35:52.777Z,5.30
2018-11-12T00:38:23.340Z,5.20
2018-11-12T00:40:51.806Z,5.30
2018-11-12T00:43:20.629Z,5.30
2018-11-12T00:45:49.052Z,5.30
2018-11-12T00:48:17.541Z,5.40
2018-11-12T00:50:45.976Z,5.30
2018-11-12T00:53:14.472Z,5.30
2018-11-12T00:55:42.914Z,5.20
2018-11-12T00:58:11.363Z,5.20
2018-11-12T01:00:39.787Z,5.10
2018-11-12T01:03:08.248Z,5.10
2018-11-12T01:05:36.672Z,5.10
2018-11-12T01:08:07.428Z,5.00
2018-11-12T01:10:35.936Z,5.00
2018-11-12T01:13:04.387Z,5.00
2018-11-12T01:15:33.794Z,4.90
2018-11-12T01:18:02.214Z,4.90
2018-11-12T01:20:30.717Z,4.80
2018-11-12T01:22:59.076Z,4.80
2018-11-12T01:25:27.565Z,4.70
2018-11-12T01:27:56.427Z,4.60
2018-11-12T01:30:25.271Z,4.60
2018-11-12T01:32:53.772Z,4.50
2018-11-12T01:35:22.184Z,4.50
2018-11-12T01:37:59.684Z,4.50
2018-11-12T01:40:28.142Z,4.40
2018-11-12T01:42:56.566Z,4.40
2018-11-12T01:45:25.009Z,4.30
2018-11-12T01:47:53.420Z,4.30
2018-11-12T01:50:22.709Z,4.30
2018-11-12T01:52:51.113Z,4.30
2018-11-12T01:55:21.838Z,4.30
2018-11-12T01:57:50.315Z,4.20
2018-11-12T02:00:20.020Z,4.20
2018-11-12T02:02:49.930Z,4.10
2018-11-12T02:05:20.418Z,4.10
2018-11-12T02:07:48.823Z,4.10
2018-11-12T02:10:18.525Z,4.10
2018-11-12T02:12:47.220Z,4.10
2018-11-12T02:15:17.018Z,4.00
2018-11-12T02:17:46.540Z,4.00
2018-11-12T02:20:16.148Z,4.00
2018-11-12T02:22:45.483Z,3.90
2018-11-12T02:25:15.411Z,3.90
2018-11-12T02:27:43.831Z,3.80
2018-11-12T02:30:15.611Z,3.80
2018-11-12T02:32:44.554Z,3.80
2018-11-12T02:35:12.964Z,3.80
2018-11-12T02:37:41.399Z,3.80
2018-11-12T02:40:11.516Z,3.80
2018-11-12T02:42:40.260Z,3.80
2018-11-12T02:45:09.734Z,3.80
2018-11-12T02:47:38.637Z,3.80
2018-11-12T02:50:08.352Z,3.80
2018-11-12T02:52:36.716Z,3.70
2018-11-12T02:55:06.232Z,3.70
2018-11-12T02:57:34.724Z,3.70
2018-11-12T03:00:03.300Z,3.70
2018-11-12T03:02:31.727Z,3.70
2018-11-12T03:05:00.180Z,3.60
2018-11-12T03:07:28.733Z,3.60
2018-11-12T03:09:57.630Z,3.60
2018-11-12T03:12:26.353Z,3.60
2018-11-12T03:14:54.828Z,3.60
2018-11-12T03:17:23.240Z,3.60
2018-11-12T03:19:51.665Z,3.50
2018-11-12T03:22:20.319Z,3.50
2018-11-12T03:24:48.738Z,3.50
2018-11-12T03:27:17.208Z,3.50
2018-11-12T03:29:45.680Z,3.40
2018-11-12T03:32:14.204Z,3.40
2018-11-12T03:34:43.006Z,3.40
2018-11-12T03:37:12.327Z,3.40
2018-11-12T03:39:40.856Z,3.30
2018-11-12T03:42:09.772Z,3.30
2018-11-12T03:44:38.181Z,3.30
2018-11-12T03:47:06.969Z,3.30
2018-11-12T03:49:35.378Z,3.30
2018-11-12T03:52:03.813Z,3.20
2018-11-12T03:54:32.256Z,3.20
2018-11-12T03:57:00.718Z,3.20
2018-11-12T03:59:29.547Z,3.20
2018-11-12T04:01:58.584Z,3.20
2018-11-12T04:04:27.540Z,3.10
2018-11-12T04:06:55.976Z,3.10
2018-11-12T04:09:24.373Z,3.10
2018-11-12T04:11:52.803Z,3.10
2018-11-12T04:14:21.568Z,3.00
2018-11-12T04:16:50.063Z,3.00
2018-11-12T04:19:18.468Z,3.00
2018-11-12T04:21:46.959Z,3.00
2018-11-12T04:24:15.965Z,3.00
2018-11-12T04:26:44.396Z,3.00
2018-11-12T04:29:12.843Z,3.10
2018-11-12T04:31:41.257Z,3.10
2018-11-12T04:34:09.701Z,3.10
2018-11-12T04:36:38.141Z,3.10
2018-11-12T04:39:08.533Z,3.10
2018-11-12T04:41:37.017Z,3.10
2018-11-12T04:44:05.478Z,3.10
2018-11-12T04:46:34.133Z,3.00
2018-11-12T04:49:02.574Z,3.00
2018-11-12T04:51:31.119Z,3.00
2018-11-12T04:53:59.549Z,3.00
2018-11-12T04:56:28.001Z,3.00
2018-11-12T04:58:56.441Z,2.90
2018-11-12T05:01:24.811Z,2.90
2018-11-12T05:03:53.232Z,2.90
2018-11-12T05:06:21.645Z,2.80
2018-11-12T05:08:54.031Z,2.80
2018-11-12T05:11:23.325Z,2.80
2018-11-12T05:13:51.674Z,2.80
2018-11-12T05:16:20.116Z,2.80
2018-11-12T05:18:48.546Z,2.80
2018-11-12T05:21:17.515Z,2.80
2018-11-12T05:23:46.056Z,2.80
2018-11-12T05:26:14.616Z,2.80
2018-11-12T05:28:43.061Z,2.80
2018-11-12T05:31:11.520Z,2.90
2018-11-12T05:33:39.964Z,2.90
2018-11-12T05:36:08.418Z,2.90
2018-11-12T05:38:36.852Z,2.90
2018-11-12T05:41:05.547Z,2.90
2018-11-12T05:43:34.020Z,2.90
2018-11-12T05:46:02.476Z,3.00
2018-11-12T05:48:30.914Z,3.00
2018-11-12T05:50:59.364Z,3.00
2018-11-12T05:53:27.805Z,3.00
2018-11-12T05:55:56.166Z,3.10
2018-11-12T05:58:24.646Z,3.10
2018-11-12T06:00:54.000Z,3.00
2018-11-12T06:03:22.438Z,3.00
2018-11-12T06:05:50.881Z,2.90
2018-11-12T06:08:19.354Z,2.90
2018-11-12T06:10:47.833Z,2.80
2018-11-12T06:13:16.358Z,2.80
2018-11-12T06:15:45.409Z,2.80
2018-11-12T06:18:13.869Z,2.80
2018-11-12T06:20:42.292Z,2.80
2018-11-12T06:23:10.718Z,2.80
2018-11-12T06:25:39.387Z,2.80
2018-11-12T06:28:07.783Z,2.90
2018-11-12T06:30:37.484Z,2.80
2018-11-12T06:33:05.929Z,2.90
2018-11-12T06:35:34.399Z,2.90
2018-11-12T06:38:02.860Z,2.90
2018-11-12T06:40:31.236Z,3.00
2018-11-12T06:42:59.720Z,3.00
2018-11-12T06:45:29.971Z,3.10
2018-11-12T06:47:58.998Z,3.20
2018-11-12T06:50:29.573Z,3.20
2018-11-12T06:52:58.322Z,3.40
2018-11-12T06:55:26.722Z,3.50
2018-11-12T06:57:55.387Z,3.60
2018-11-12T07:00:25.346Z,3.70
2018-11-12T07:02:53.756Z,3.80
2018-11-12T07:05:22.321Z,4.00
2018-11-12T07:07:50.748Z,4.10
2018-11-12T07:10:20.504Z,4.40
2018-11-12T07:12:49.800Z,4.60
2018-11-12T07:15:19.345Z,4.90
2018-11-12T07:17:47.740Z,5.10
2018-11-12T07:20:18.883Z,5.70
2018-11-12T07:22:47.368Z,7.10
2018-11-12T07:25:17.053Z,8.70
2018-11-12T07:27:45.485Z,10.10
2018-11-12T07:30:17.130Z,11.20
2018-11-12T07:32:46.746Z,12.30
2018-11-12T07:35:15.852Z,13.30
2018-11-12T07:37:45.400Z,14.70
2018-11-12T07:40:14.476Z,16.10
2018-11-12T07:42:43.075Z,17.10
2018-11-12T07:45:13.708Z,17.70
2018-11-12T07:47:43.542Z,18.40
2018-11-12T07:50:14.282Z,19.50
2018-11-12T07:52:43.934Z,20.20
2018-11-12T07:55:14.590Z,21.10
2018-11-12T07:57:43.680Z,21.70
2018-11-12T08:00:15.269Z,22.10
2018-11-12T08:02:44.619Z,22.60
2018-11-12T08:05:13.635Z,23.20
2018-11-12T08:07:42.868Z,24.00
2018-11-12T08:10:13.831Z,24.60
2018-11-12T08:12:43.132Z,25.10
2018-11-12T08:15:12.861Z,25.50
2018-11-12T08:17:41.527Z,25.70
2018-11-12T08:20:11.980Z,25.90
2018-11-12T08:22:40.521Z,26.10
2018-11-12T08:25:10.265Z,26.70
2018-11-12T08:27:39.013Z,27.00
2018-11-12T08:30:17.628Z,27.50
2018-11-12T08:32:47.157Z,27.80
2018-11-12T08:35:15.981Z,28.30
2018-11-12T08:37:45.083Z,28.70
2018-11-12T08:40:14.866Z,28.40
2018-11-12T08:42:43.756Z,28.50
2018-11-12T08:45:12.527Z,29.00
2018-11-12T08:47:42.304Z,29.60
2018-11-12T08:50:18.126Z,30.20
2018-11-12T08:52:48.205Z,30.80
2018-11-12T08:55:17.996Z,31.20
2018-11-12T08:57:48.512Z,31.40
2018-11-12T09:00:17.549Z,31.40
2018-11-12T09:02:46.084Z,30.90
2018-11-12T09:05:15.743Z,30.30
2018-11-12T09:07:45.659Z,30.00
2018-11-12T09:10:15.954Z,29.50
2018-11-12T09:12:45.150Z,29.30
2018-11-12T09:15:13.816Z,29.40
2018-11-12T09:17:42.953Z,29.10
2018-11-12T09:20:14.768Z,28.80
2018-11-12T09:22:43.182Z,28.20
2018-11-12T09:25:14.212Z,27.80
2018-11-12T09:27:42.828Z,27.70
2018-11-12T09:30:14.433Z,27.90
2018-11-12T09:32:43.426Z,27.90
2018-11-12T09:35:13.558Z,28.30
2018-11-12T09:37:42.681Z,28.60
2018-11-12T09:40:13.439Z,28.30
2018-11-12T09:42:42.018Z,27.80
2018-11-12T09:45:12.376Z,26.90
2018-11-12T09:47:42.218Z,26.30
2018-11-12T09:50:17.802Z,25.80
2018-11-12T09:52:47.546Z,25.40
2018-11-12T09:55:16.924Z,25.00
2018-11-12T09:57:46.772Z,24.70
2018-11-12T10:00:17.116Z,24.20
2018-11-12T10:02:47.312Z,24.00
2018-11-12T10:05:17.229Z,23.60
2018-11-12T10:07:47.568Z,23.30
2018-11-12T10:10:24.719Z,22.90
2018-11-12T10:12:53.404Z,22.80
2018-11-12T10:15:23.574Z,22.60
2018-11-12T10:17:51.239Z,22.60
2018-11-12T10:20:18.127Z,22.50
2018-11-12T10:22:47.694Z,22.30
2018-11-12T10:25:16.142Z,22.10
2018-11-12T10:27:44.872Z,21.90
2018-11-12T10:30:13.172Z,22.20
2018-11-12T10:32:41.607Z,22.30
2018-11-12T10:35:12.147Z,22.60
2018-11-12T10:37:41.457Z,22.90
2018-11-12T10:40:13.025Z,23.20
2018-11-12T10:42:41.569Z,23.60
2018-11-12T10:45:09.977Z,23.60
2018-11-12T10:47:38.343Z,23.90
2018-11-12T10:50:07.121Z,23.90
2018-11-12T10:52:35.901Z,23.60
2018-11-12T10:55:05.540Z,23.50
2018-11-12T10:57:34.351Z,23.60
2018-11-12T11:00:02.792Z,23.80
2018-11-12T11:02:36.901Z,23.70
2018-11-12T11:05:06.394Z,23.40
2018-11-12T11:07:35.407Z,23.80
2018-11-12T11:10:03.853Z,24.10
2018-11-12T11:12:32.208Z,23.80
2018-11-12T11:15:00.608Z,23.70
2018-11-12T11:17:28.982Z,23.30
2018-11-12T11:19:57.424Z,22.90
2018-11-12T11:22:25.836Z,22.50
2018-11-12T11:24:54.757Z,22.30
2018-11-12T11:27:23.208Z,22.00
2018-11-12T11:29:57.496Z,21.60
2018-11-12T11:32:25.930Z,21.30
2018-11-12T11:34:54.689Z,21.10
2018-11-12T11:37:23.813Z,21.00
2018-11-12T11:40:08.125Z,21.00
2018-11-12T11:42:36.637Z,20.90
2018-11-12T11:45:08.025Z,20.60
2018-11-12T11:47:36.851Z,20.60
2018-11-12T11:50:05.565Z,20.40
2018-11-12T11:52:34.005Z,20.30
2018-11-12T11:55:02.421Z,20.10
2018-11-12T11:57:30.870Z,20.00
2018-11-12T11:59:59.666Z,19.90
2018-11-12T12:02:28.096Z,19.90
2018-11-12T12:04:56.532Z,19.90
2018-11-12T12:07:25.602Z,19.90
2018-11-12T12:09:53.992Z,20.10
2018-11-12T12:12:22.397Z,19.90
2018-11-12T12:14:51.761Z,19.70
2018-11-12T12:17:20.158Z,19.50
2018-11-12T12:19:48.674Z,19.40
2018-11-12T12:22:17.108Z,19.20
2018-11-12T12:24:45.782Z,19.10
2018-11-12T12:27:14.005Z,19.20
2018-11-12T12:29:42.627Z,19.10
2018-11-12T12:32:11.373Z,19.10
2018-11-12T12:34:39.836Z,18.90
2018-11-12T12:37:08.346Z,18.50
2018-11-12T12:39:36.810Z,18.30
2018-11-12T12:42:05.614Z,18.10
2018-11-12T12:44:35.682Z,18.10
2018-11-12T12:47:04.657Z,18.10
2018-11-12T12:49:33.931Z,18.00
2018-11-12T12:52:02.454Z,18.00
2018-11-12T12:54:30.905Z,17.90
2018-11-12T12:56:59.680Z,17.80
2018-11-12T12:59:28.146Z,17.80
2018-11-12T13:01:56.686Z,17.70
2018-11-12T13:04:25.212Z,17.60
2018-11-12T13:06:53.633Z,17.70
2018-11-12T13:09:22.085Z,17.60
2018-11-12T13:11:51.061Z,17.50
2018-11-12T13:14:19.523Z,17.40
2018-11-12T13:16:47.889Z,17.40
2018-11-12T13:19:16.616Z,17.40
2018-11-12T13:21:45.723Z,17.30
2018-11-12T13:24:14.097Z,17.20
2018-11-12T13:26:42.553Z,17.10
2018-11-12T13:29:11.028Z,17.00
2018-11-12T13:31:39.457Z,17.00
2018-11-12T13:34:07.813Z,16.70
2018-11-12T13:36:36.213Z,16.40
2018-11-12T13:39:08.561Z,16.00
2018-11-12T13:41:37.120Z,15.70
2018-11-12T13:44:05.756Z,15.50
2018-11-12T13:46:39.661Z,15.20
2018-11-12T13:49:08.122Z,15.20
2018-11-12T13:51:36.541Z,15.10
2018-11-12T13:54:05.565Z,15.20
2018-11-12T13:56:33.995Z,15.20
2018-11-12T13:59:02.578Z,15.20
2018-11-12T14:01:31.221Z,15.10
2018-11-12T14:04:00.756Z,15.00
2018-11-12T14:06:29.847Z,14.90
2018-11-12T14:08:58.283Z,14.80
2018-11-12T14:11:26.741Z,14.70
2018-11-12T14:13:55.852Z,14.70
2018-11-12T14:16:24.332Z,14.70
2018-11-12T14:18:52.720Z,14.70
2018-11-12T14:21:21.325Z,14.70
2018-11-12T14:23:49.624Z,14.60
2018-11-12T14:26:18.276Z,14.60
2018-11-12T14:28:46.908Z,14.40
2018-11-12T14:31:15.324Z,14.30
2018-11-12T14:33:43.899Z,14.20
2018-11-12T14:36:12.431Z,14.10
2018-11-12T14:38:40.885Z,14.00
2018-11-12T14:41:10.137Z,13.90
2018-11-12T14:43:42.412Z,13.80
2018-11-12T14:46:12.825Z,13.70
2018-11-12T14:48:41.529Z,13.70
2018-11-12T14:51:10.043Z,13.60
2018-11-12T14:53:38.388Z,13.40
2018-11-12T14:56:06.760Z,13.40
2018-11-12T14:58:35.189Z,13.30
2018-11-12T15:01:03.616Z,13.20
2018-11-12T15:03:32.010Z,13.00
2018-11-12T15:06:00.558Z,12.90
2018-11-12T15:08:28.977Z,12.70
2018-11-12T15:10:57.396Z,12.60
2018-11-12T15:13:27.297Z,12.50
2018-11-12T15:15:55.657Z,12.30
2018-11-12T15:18:24.219Z,12.20
2018-11-12T15:20:52.704Z,12.10
2018-11-12T15:23:21.124Z,12.00
2018-11-12T15:25:49.565Z,11.90
2018-11-12T15:28:17.981Z,11.80
2018-11-12T15:30:46.819Z,11.70
2018-11-12T15:33:15.565Z,11.60
2018-11-12T15:35:44.040Z,11.50
2018-11-12T15:38:13.651Z,11.40
2018-11-12T15:40:42.693Z,11.30
2018-11-12T15:43:11.579Z,11.20
2018-11-12T15:45:39.921Z,11.10
2018-11-12T15:48:08.276Z,11.10
2018-11-12T15:50:37.312Z,11.00
2018-11-12T15:53:05.817Z,11.00
2018-11-12T15:55:34.289Z,11.00
2018-11-12T15:58:03.673Z,10.90
2018-11-12T16:00:32.092Z,10.90
2018-11-12T16:03:00.491Z,10.80
2018-11-12T16:05:28.908Z,10.80
2018-11-12T16:07:58.046Z,10.70
2018-11-12T16:10:26.600Z,10.70
2018-11-12T16:12:55.024Z,10.60
2018-11-12T16:15:23.833Z,10.50
2018-11-12T16:17:52.224Z,10.50
2018-11-12T16:20:23.373Z,10.50
2018-11-12T16:22:52.244Z,10.30
2018-11-12T16:25:21.021Z,10.30
2018-11-12T16:27:49.532Z,10.30
2018-11-12T16:30:17.972Z,10.20
2018-11-12T16:32:47.008Z,10.10
2018-11-12T16:35:21.435Z,10.10
2018-11-12T16:37:51.457Z,10.00
2018-11-12T16:40:19.968Z,9.90
2018-11-12T16:42:49.289Z,9.80
2018-11-12T16:45:18.077Z,9.70
2018-11-12T16:47:47.748Z,9.60
2018-11-12T16:50:16.853Z,9.50
2018-11-12T16:52:45.347Z,9.40
2018-11-12T16:55:16.634Z,9.30
2018-11-12T16:57:45.404Z,9.30
2018-11-12T17:00:15.077Z,9.20
2018-11-12T17:02:43.910Z,9.10
2018-11-12T17:05:13.681Z,9.00
2018-11-12T17:07:42.466Z,8.90
2018-11-12T17:10:13.550Z,8.90
2018-11-12T17:12:43.193Z,8.80
2018-11-12T17:15:12.444Z,8.70
2018-11-12T17:17:40.981Z,8.70
2018-11-12T17:20:11.028Z,8.60
2018-11-12T17:22:39.408Z,8.50
2018-11-12T17:25:09.117Z,8.50
2018-11-12T17:27:37.725Z,8.40
2018-11-12T17:30:09.980Z,8.40
2018-11-12T17:32:38.374Z,8.30
2018-11-12T17:35:09.332Z,8.20
2018-11-12T17:37:38.393Z,8.20
2018-11-12T17:40:12.044Z,8.10
2018-11-12T17:42:40.498Z,8.10
2018-11-12T17:45:14.946Z,8.00
2018-11-12T17:47:44.732Z,7.90
2018-11-12T17:50:13.196Z,7.80
2018-11-12T17:52:42.248Z,7.80
2018-11-12T17:55:11.271Z,7.70
2018-11-12T17:57:43.644Z,7.70
2018-11-12T18:00:19.254Z,7.70
2018-11-12T18:02:48.093Z,7.60
2018-11-12T18:05:16.547Z,7.60
2018-11-12T18:07:45.262Z,7.60
2018-11-12T18:10:14.970Z,7.50
2018-11-12T18:12:43.452Z,7.50
2018-11-12T18:15:14.094Z,7.40
2018-11-12T18:17:42.648Z,7.40
2018-11-12T18:20:16.271Z,7.30
2018-11-12T18:22:44.965Z,7.30
2018-11-12T18:25:14.889Z,7.20
2018-11-12T18:27:43.560Z,7.20
2018-11-12T18:30:20.696Z,7.10
2018-11-12T18:32:53.469Z,7.10
2018-11-12T18:35:22.008Z,7.00
2018-11-12T18:37:50.450Z,7.00
2018-11-12T18:40:22.222Z,6.90
2018-11-12T18:42:51.202Z,6.90
2018-11-12T18:45:21.036Z,6.90
2018-11-12T18:47:49.448Z,6.80
2018-11-12T18:50:20.228Z,6.80
2018-11-12T18:52:48.729Z,6.80
2018-11-12T18:55:17.035Z,6.80
2018-11-12T18:57:46.275Z,6.80
2018-11-12T19:00:17.308Z,6.80
2018-11-12T19:02:46.144Z,6.90
2018-11-12T19:05:24.035Z,6.90
2018-11-12T19:07:53.413Z,6.90
2018-11-12T19:10:23.406Z,6.90
2018-11-12T19:12:52.298Z,6.90
2018-11-12T19:15:22.604Z,6.80
2018-11-12T19:17:58.012Z,6.80
2018-11-12T19:20:26.464Z,6.80
2018-11-12T19:22:55.716Z,6.80
2018-11-12T19:25:24.392Z,6.80
2018-11-12T19:27:52.875Z,6.80
2018-11-12T19:30:23.716Z,6.80
2018-11-12T19:32:57.641Z,6.70
2018-11-12T19:35:27.444Z,6.70
2018-11-12T19:37:55.896Z,6.70
2018-11-12T19:40:26.061Z,6.60
2018-11-12T19:42:55.064Z,6.60
2018-11-12T19:45:23.584Z,6.50
2018-11-12T19:47:52.484Z,6.50
2018-11-12T19:50:24.048Z,6.40
2018-11-12T19:52:53.681Z,6.40
2018-11-12T19:55:22.145Z,6.40
2018-11-12T19:57:50.829Z,6.40
2018-11-12T20:00:23.752Z,6.40
2018-11-12T20:02:53.628Z,6.40
2018-11-12T20:05:23.780Z,6.40
2018-11-12T20:07:52.308Z,6.40
2018-11-12T20:10:21.972Z,6.30
2018-11-12T20:12:50.348Z,6.30
2018-11-12T20:15:20.651Z,6.40
2018-11-12T20:17:49.960Z,6.40
2018-11-12T20:20:19.920Z,6.40
2018-11-12T20:22:48.909Z,6.40
2018-11-12T20:25:18.510Z,6.40
2018-11-12T20:27:47.533Z,6.50
2018-11-12T20:30:22.180Z,6.50
2018-11-12T20:32:50.583Z,6.50
2018-11-12T20:35:19.009Z,6.50
2018-11-12T20:37:47.445Z,6.50
2018-11-12T20:40:16.478Z,6.40
2018-11-12T20:42:46.064Z,6.40
2018-11-12T20:45:15.751Z,6.40
2018-11-12T20:47:45.316Z,6.40
2018-11-12T20:50:15.000Z,6.40
2018-11-12T20:52:43.861Z,6.30
2018-11-12T20:55:14.382Z,6.30
2018-11-12T20:57:43.504Z,6.20
2018-11-12T21:00:23.047Z,6.20
2018-11-12T21:02:52.294Z,6.10
2018-11-12T21:05:23.028Z,6.00
2018-11-12T21:07:51.443Z,5.90
2018-11-12T21:10:20.378Z,5.90
2018-11-12T21:12:49.680Z,5.80
2018-11-12T21:15:19.038Z,5.70
2018-11-12T21:17:47.491Z,5.70
2018-11-12T21:20:18.845Z,5.70
2018-11-12T21:22:47.361Z,5.70
2018-11-12T21:25:17.448Z,5.60
2018-11-12T21:27:46.193Z,5.60
2018-11-12T21:30:18.768Z,5.50
2018-11-12T21:32:47.367Z,5.50
2018-11-12T21:35:15.901Z,5.50
2018-11-12T21:37:45.489Z,5.40
2018-11-12T21:40:16.973Z,5.40
2018-11-12T21:42:45.478Z,5.40
2018-11-12T21:45:15.382Z,5.40
2018-11-12T21:47:44.442Z,5.30
2018-11-12T21:50:14.537Z,5.30
2018-11-12T21:52:42.924Z,5.20
2018-11-12T21:55:12.037Z,5.20
2018-11-12T21:57:41.088Z,5.20
2018-11-12T22:00:21.785Z,5.20
2018-11-12T22:02:51.684Z,5.10
2018-11-12T22:05:20.290Z,5.10
2018-11-12T22:07:48.796Z,5.10
2018-11-12T22:10:18.093Z,5.00
2018-11-12T22:12:47.808Z,5.00
2018-11-12T22:15:16.551Z,4.90
2018-11-12T22:17:44.988Z,4.90
2018-11-12T22:20:15.532Z,4.90
2018-11-12T22:22:44.544Z,4.90
2018-11-12T22:25:14.317Z,4.80
2018-11-12T22:27:43.621Z,4.80
2018-11-12T22:30:14.260Z,4.80
2018-11-12T22:32:42.993Z,4.80
2018-11-12T22:35:11.429Z,4.80
2018-11-12T22:37:40.322Z,4.80
2018-11-12T22:40:10.129Z,4.70
2018-11-12T22:42:38.748Z,4.70
2018-11-12T22:45:08.446Z,4.70
2018-11-12T22:47:36.834Z,4.60
2018-11-12T22:50:06.492Z,4.60
2018-11-12T22:52:34.930Z,4.60
2018-11-12T22:55:03.496Z,4.60
2018-11-12T22:57:31.941Z,4.50
2018-11-12T23:00:00.416Z,4.60
2018-11-12T23:02:29.083Z,4.50
2018-11-12T23:04:58.408Z,4.60
2018-11-12T23:07:26.854Z,4.50
2018-11-12T23:09:55.842Z,4.50
2018-11-12T23:12:24.472Z,4.50
2018-11-12T23:14:53.564Z,4.50
2018-11-12T23:17:21.982Z,4.50
2018-11-12T23:19:50.501Z,4.50
2018-11-12T23:22:18.852Z,4.50
2018-11-12T23:24:47.546Z,4.50
2018-11-12T23:27:15.985Z,4.50
2018-11-12T23:29:44.440Z,4.50
2018-11-12T23:32:12.807Z,4.50
2018-11-12T23:34:41.438Z,4.50
2018-11-12T23:37:09.856Z,4.50
2018-11-12T23:39:38.328Z,4.50
2018-11-12T23:42:06.726Z,4.60
2018-11-12T23:44:35.213Z,4.50
2018-11-12T23:47:03.580Z,4.50
2018-11-12T23:49:32.168Z,4.50
2018-11-12T23:52:00.625Z,4.50
2018-11-12T23:54:29.288Z,4.50
2018-11-12T23:56:57.736Z,4.50
2018-11-12T23:59:26.136Z,4.50
